Time;durP1;ratioP1;P1;durP2;ratioP2;P2;SDS_P1;SDS_P2;PMS_P1;PMS_P2;Temp;Humidity;BMP_temperature;BMP_pressure;BME280_temperature;BME280_humidity;BME280_pressure;Samples;Min_cycle;Max_cycle;Signal;HPM_P1;HPM_P2
2021/07/06 00:01:25;;;;;;;3.25;1.30;;;;;;;;;;4996143;28;20046;-83
2021/07/06 00:03:51;;;;;;;4.57;1.45;;;;;;;;;;4996265;28;20069;-82
2021/07/06 00:06:18;;;;;;;2.78;1.10;;;;;;;;;;4996191;28;20042;-83
2021/07/06 00:08:45;;;;;;;2.05;1.20;;;;;;;;;;4996173;28;20057;-83
2021/07/06 00:11:12;;;;;;;2.85;1.20;;;;;;;;;;4996140;28;20046;-83
2021/07/06 00:13:38;;;;;;;2.00;1.23;;;;;;;;;;4996548;28;20058;-83
2021/07/06 00:16:05;;;;;;;2.42;1.27;;;;;;;;;;4996298;28;20038;-82
2021/07/06 00:18:31;;;;;;;2.50;1.20;;;;;;;;;;4995982;28;20043;-82
2021/07/06 00:21:00;;;;;;;3.42;1.40;;;;;;;;;;4996584;28;20130;-82
2021/07/06 00:23:27;;;;;;;2.05;1.13;;;;;;;;;;4995571;28;20046;-84
2021/07/06 00:25:55;;;;;;;2.17;1.25;;;;;;;;;;4995601;28;20050;-82
2021/07/06 00:28:23;;;;;;;2.67;1.30;;;;;;;;;;4995705;28;20051;-84
2021/07/06 00:30:49;;;;;;;2.42;1.48;;;;;;;;;;4995307;28;20050;-83
2021/07/06 00:33:16;;;;;;;1.52;1.20;;;;;;;;;;4995628;28;20054;-82
2021/07/06 00:35:42;;;;;;;1.67;1.27;;;;;;;;;;4995587;28;20042;-82
2021/07/06 00:38:09;;;;;;;1.88;1.20;;;;;;;;;;4995578;28;20130;-82
2021/07/06 00:40:35;;;;;;;1.83;1.10;;;;;;;;;;4994524;28;20502;-84
2021/07/06 00:43:03;;;;;;;1.95;1.23;;;;;;;;;;4994553;28;20411;-83
2021/07/06 00:45:30;;;;;;;3.25;1.60;;;;;;;;;;4994938;28;20057;-83
2021/07/06 00:48:00;;;;;;;2.17;1.30;;;;;;;;;;4994981;28;20050;-82
2021/07/06 00:50:27;;;;;;;5.60;1.77;;;;;;;;;;4994640;28;20050;-82
2021/07/06 00:52:54;;;;;;;5.35;1.33;;;;;;;;;;4994523;28;20514;-83
2021/07/06 00:55:21;;;;;;;2.40;0.95;;;;;;;;;;4994520;28;20057;-82
2021/07/06 00:57:48;;;;;;;1.95;1.35;;;;;;;;;;4994891;28;20073;-84
2021/07/06 01:00:18;;;;;;;3.38;1.30;;;;;;;;;;4994012;28;20495;-82
2021/07/06 01:02:45;;;;;;;2.58;1.40;;;;;;;;;;4994416;28;20049;-82
2021/07/06 01:05:15;;;;;;;1.90;1.17;;;;;;;;;;4994238;28;20050;-82
2021/07/06 01:07:41;;;;;;;2.45;1.23;;;;;;;;;;4994413;28;20046;-82
2021/07/06 01:10:09;;;;;;;2.38;1.17;;;;;;;;;;4994126;28;20058;-82
2021/07/06 01:12:36;;;;;;;2.90;1.15;;;;;;;;;;4994093;28;20487;-83
2021/07/06 01:15:06;;;;;;;2.13;1.40;;;;;;;;;;4993873;28;20057;-83
2021/07/06 01:17:34;;;;;;;1.92;1.10;;;;;;;;;;4993990;28;20046;-83
2021/07/06 01:20:07;;;;;;;3.13;1.30;;;;;;;;;;4994463;28;20050;-82
2021/07/06 01:22:35;;;;;;;2.25;1.40;;;;;;;;;;4994432;28;20094;-82
2021/07/06 01:25:04;;;;;;;3.78;1.70;;;;;;;;;;4993541;28;20518;-83
2021/07/06 01:27:30;;;;;;;1.52;1.20;;;;;;;;;;4993822;28;20050;-83
2021/07/06 01:29:57;;;;;;;3.00;1.35;;;;;;;;;;4993857;28;20050;-82
2021/07/06 01:32:24;;;;;;;1.98;1.23;;;;;;;;;;4993836;28;20051;-82
2021/07/06 01:34:50;;;;;;;2.40;1.20;;;;;;;;;;4993871;28;20058;-84
2021/07/06 01:37:17;;;;;;;3.35;1.25;;;;;;;;;;4993938;28;20050;-83
2021/07/06 01:39:47;;;;;;;1.73;1.13;;;;;;;;;;4993858;28;20050;-82
2021/07/06 01:42:16;;;;;;;2.60;1.25;;;;;;;;;;4993257;28;20499;-82
2021/07/06 01:44:43;;;;;;;2.83;1.33;;;;;;;;;;4993775;28;20058;-82
2021/07/06 01:47:09;;;;;;;2.33;1.23;;;;;;;;;;4992955;28;20046;-82
2021/07/06 01:49:36;;;;;;;1.92;1.33;;;;;;;;;;4993675;28;20046;-82
2021/07/06 01:52:02;;;;;;;3.20;1.40;;;;;;;;;;4993600;28;20065;-82
2021/07/06 01:54:29;;;;;;;1.98;1.20;;;;;;;;;;4993657;28;20061;-82
2021/07/06 01:56:57;;;;;;;2.20;1.52;;;;;;;;;;4993380;28;20049;-82
2021/07/06 01:59:23;;;;;;;2.00;1.20;;;;;;;;;;4993489;28;20046;-82
2021/07/06 02:01:50;;;;;;;3.50;1.30;;;;;;;;;;4993352;28;20047;-82
2021/07/06 02:04:16;;;;;;;2.50;1.40;;;;;;;;;;4992818;28;20050;-82
2021/07/06 02:06:43;;;;;;;3.70;1.35;;;;;;;;;;4993237;28;20138;-84
2021/07/06 02:09:10;;;;;;;2.47;1.25;;;;;;;;;;4992992;28;20050;-82
2021/07/06 02:11:37;;;;;;;3.67;1.30;;;;;;;;;;4992869;28;20061;-82
2021/07/06 02:14:05;;;;;;;1.80;1.17;;;;;;;;;;4993260;28;20050;-82
2021/07/06 02:16:31;;;;;;;3.03;1.27;;;;;;;;;;4992629;28;20112;-83
2021/07/06 02:18:58;;;;;;;3.22;1.35;;;;;;;;;;4993081;28;20050;-81
2021/07/06 02:21:24;;;;;;;4.07;1.40;;;;;;;;;;4993027;28;20057;-82
2021/07/06 02:23:51;;;;;;;3.08;1.17;;;;;;;;;;4993318;28;20069;-82
2021/07/06 02:26:18;;;;;;;2.90;1.35;;;;;;;;;;4993028;28;20134;-83
2021/07/06 02:28:44;;;;;;;3.20;1.50;;;;;;;;;;4993077;28;20121;-83
2021/07/06 02:31:12;;;;;;;3.05;1.27;;;;;;;;;;4992865;28;20428;-82
2021/07/06 02:33:38;;;;;;;3.25;1.30;;;;;;;;;;4993211;28;20046;-82
2021/07/06 02:36:07;;;;;;;1.98;1.30;;;;;;;;;;4993402;28;20499;-82
2021/07/06 02:38:34;;;;;;;2.65;1.45;;;;;;;;;;4993822;28;20046;-83
2021/07/06 02:41:00;;;;;;;2.55;1.45;;;;;;;;;;4993307;28;20047;-81
2021/07/06 02:43:27;;;;;;;3.10;1.70;;;;;;;;;;4993468;28;20053;-82
2021/07/06 02:45:54;;;;;;;3.25;1.65;;;;;;;;;;4993598;28;20057;-82
2021/07/06 02:48:22;;;;;;;4.57;1.80;;;;;;;;;;4993448;28;20046;-82
2021/07/06 02:50:49;;;;;;;3.08;1.60;;;;;;;;;;4993479;28;20077;-82
2021/07/06 02:53:15;;;;;;;5.60;1.65;;;;;;;;;;4993653;28;20050;-82
2021/07/06 02:55:42;;;;;;;4.03;1.92;;;;;;;;;;4993368;28;20050;-82
2021/07/06 02:58:09;;;;;;;3.17;1.80;;;;;;;;;;4994961;28;20056;-82
2021/07/06 03:00:36;;;;;;;2.65;1.60;;;;;;;;;;4997462;28;20101;-82
2021/07/06 03:03:04;;;;;;;4.00;1.50;;;;;;;;;;4997517;28;20554;-84
2021/07/06 03:05:33;;;;;;;2.85;1.75;;;;;;;;;;4998177;28;20046;-82
2021/07/06 03:08:01;;;;;;;3.85;1.65;;;;;;;;;;4998596;28;20042;-82
2021/07/06 03:10:29;;;;;;;4.63;1.80;;;;;;;;;;4998265;28;20054;-82
2021/07/06 03:12:56;;;;;;;4.10;1.60;;;;;;;;;;4998269;28;20523;-83
2021/07/06 03:15:24;;;;;;;4.10;1.60;;;;;;;;;;4998178;28;20850;-83
2021/07/06 03:17:51;;;;;;;2.25;1.40;;;;;;;;;;4998022;28;20510;-82
2021/07/06 03:20:19;;;;;;;5.10;1.38;;;;;;;;;;4998552;28;20050;-82
2021/07/06 03:22:47;;;;;;;2.53;1.48;;;;;;;;;;4998654;28;20053;-82
2021/07/06 03:25:15;;;;;;;3.47;1.40;;;;;;;;;;4999202;28;20054;-82
2021/07/06 03:27:43;;;;;;;3.58;1.42;;;;;;;;;;4999825;28;20053;-82
2021/07/06 03:30:13;;;;;;;5.32;1.80;;;;;;;;;;5000617;28;20129;-82
2021/07/06 03:32:39;;;;;;;1.60;1.10;;;;;;;;;;4999308;28;20050;-82
2021/07/06 03:35:07;;;;;;;2.42;1.30;;;;;;;;;;4999410;28;20402;-82
2021/07/06 03:37:34;;;;;;;1.83;1.20;;;;;;;;;;4998815;28;20054;-82
2021/07/06 03:40:03;;;;;;;1.95;1.13;;;;;;;;;;4999020;28;20057;-84
2021/07/06 03:42:29;;;;;;;2.35;1.30;;;;;;;;;;4997822;28;20407;-82
2021/07/06 03:44:56;;;;;;;3.50;1.33;;;;;;;;;;4998110;28;20042;-83
2021/07/06 03:47:22;;;;;;;3.65;1.45;;;;;;;;;;4998329;28;20077;-83
2021/07/06 03:49:49;;;;;;;2.17;1.38;;;;;;;;;;4998224;28;20043;-83
2021/07/06 03:52:15;;;;;;;2.25;1.00;;;;;;;;;;4997626;28;20054;-83
2021/07/06 03:54:42;;;;;;;1.88;1.10;;;;;;;;;;4998243;28;20050;-83
2021/07/06 03:57:10;;;;;;;3.42;1.17;;;;;;;;;;4998463;28;20513;-83
2021/07/06 03:59:36;;;;;;;2.35;1.30;;;;;;;;;;4998990;28;20058;-84
2021/07/06 04:02:03;;;;;;;2.80;1.10;;;;;;;;;;4998238;28;20479;-83
2021/07/06 04:04:29;;;;;;;3.05;1.40;;;;;;;;;;4998891;28;20054;-83
2021/07/06 04:06:56;;;;;;;1.65;1.10;;;;;;;;;;4998983;28;20125;-84
2021/07/06 04:09:22;;;;;;;4.72;1.50;;;;;;;;;;4998913;28;20054;-83
2021/07/06 04:11:49;;;;;;;3.17;1.50;;;;;;;;;;4999016;28;20384;-83
2021/07/06 04:14:17;;;;;;;5.15;1.55;;;;;;;;;;4998766;28;20097;-83
2021/07/06 04:16:43;;;;;;;2.33;1.60;;;;;;;;;;4998494;28;20415;-84
2021/07/06 04:19:10;;;;;;;3.42;1.58;;;;;;;;;;4998408;28;20507;-85
2021/07/06 04:21:37;;;;;;;3.25;1.55;;;;;;;;;;4998408;28;20057;-84
2021/07/06 04:24:04;;;;;;;3.42;1.38;;;;;;;;;;4999421;28;20054;-84
2021/07/06 04:26:30;;;;;;;2.42;1.40;;;;;;;;;;4999753;28;20106;-83
2021/07/06 04:28:57;;;;;;;3.00;1.35;;;;;;;;;;4998462;28;20046;-85
2021/07/06 04:31:24;;;;;;;2.72;1.40;;;;;;;;;;4998147;28;20507;-83
2021/07/06 04:33:51;;;;;;;3.33;1.40;;;;;;;;;;4998029;28;20050;-83
2021/07/06 04:36:17;;;;;;;3.72;1.40;;;;;;;;;;4997449;28;20042;-84
2021/07/06 04:38:44;;;;;;;7.28;1.92;;;;;;;;;;4997181;28;20047;-83
2021/07/06 04:41:10;;;;;;;4.90;2.75;;;;;;;;;;4997475;28;20050;-85
2021/07/06 04:43:37;;;;;;;4.57;3.20;;;;;;;;;;4997283;28;20050;-83
2021/07/06 04:46:03;;;;;;;20.98;3.53;;;;;;;;;;4997792;28;20054;-83
2021/07/06 04:48:32;;;;;;;8.90;2.97;;;;;;;;;;4997518;28;20042;-83
2021/07/06 04:51:04;;;;;;;8.02;2.58;;;;;;;;;;4997474;28;20050;-84
2021/07/06 04:53:30;;;;;;;4.65;1.70;;;;;;;;;;5003760;28;20058;-85
2021/07/06 04:55:58;;;;;;;2.53;1.30;;;;;;;;;;5000635;28;20077;-84
2021/07/06 04:58:25;;;;;;;2.25;1.25;;;;;;;;;;4997821;28;20133;-83
2021/07/06 05:00:51;;;;;;;3.72;1.40;;;;;;;;;;4999678;28;20050;-84
2021/07/06 05:03:18;;;;;;;4.70;1.48;;;;;;;;;;4998787;28;20517;-83
2021/07/06 05:05:49;;;;;;;2.58;1.10;;;;;;;;;;4999665;28;20447;-85
2021/07/06 05:08:15;;;;;;;2.05;1.00;;;;;;;;;;4999933;28;20056;-85
2021/07/06 05:10:42;;;;;;;2.97;1.15;;;;;;;;;;4999456;28;20491;-85
2021/07/06 05:13:08;;;;;;;2.13;1.40;;;;;;;;;;5000557;28;20050;-84
2021/07/06 05:15:35;;;;;;;2.10;1.23;;;;;;;;;;5000912;28;20047;-85
2021/07/06 05:18:01;;;;;;;2.40;1.42;;;;;;;;;;5001273;28;20074;-86
2021/07/06 05:20:28;;;;;;;3.97;2.33;;;;;;;;;;5000624;28;20051;-84
2021/07/06 05:22:56;;;;;;;9.73;2.58;;;;;;;;;;5001900;28;20057;-87
2021/07/06 05:25:22;;;;;;;2.22;1.10;;;;;;;;;;5003094;28;20060;-84
2021/07/06 05:27:49;;;;;;;2.30;1.00;;;;;;;;;;5003093;28;20066;-87
2021/07/06 05:30:19;;;;;;;1.70;1.00;;;;;;;;;;5003563;28;20049;-86
2021/07/06 05:32:45;;;;;;;3.28;1.30;;;;;;;;;;5003592;28;20442;-86
2021/07/06 05:35:13;;;;;;;4.57;1.60;;;;;;;;;;5001737;28;20042;-81
2021/07/06 05:37:41;;;;;;;1.42;0.60;;;;;;;;;;5002393;28;20048;-84
2021/07/06 05:40:11;;;;;;;3.47;1.15;;;;;;;;;;5002652;28;20157;-82
2021/07/06 05:42:39;;;;;;;2.08;1.27;;;;;;;;;;5001615;28;20042;-83
2021/07/06 05:45:07;;;;;;;3.40;1.25;;;;;;;;;;5000866;28;20057;-82
2021/07/06 05:47:35;;;;;;;3.35;1.20;;;;;;;;;;5000942;28;20061;-82
2021/07/06 05:50:01;;;;;;;1.20;0.90;;;;;;;;;;5001090;28;20483;-83
2021/07/06 05:52:28;;;;;;;3.85;1.33;;;;;;;;;;5001396;28;20062;-84
2021/07/06 05:54:55;;;;;;;5.28;1.50;;;;;;;;;;5001342;28;20050;-84
2021/07/06 05:57:29;;;;;;;7.70;1.65;;;;;;;;;;5001390;28;20046;-82
2021/07/06 05:59:56;;;;;;;4.70;1.38;;;;;;;;;;5001160;28;20046;-84
2021/07/06 06:02:22;;;;;;;3.08;1.20;;;;;;;;;;5001999;28;20085;-84
2021/07/06 06:04:48;;;;;;;5.10;1.58;;;;;;;;;;5001676;28;20054;-84
2021/07/06 06:07:15;;;;;;;3.78;1.30;;;;;;;;;;5001856;28;20042;-84
2021/07/06 06:09:41;;;;;;;2.92;1.23;;;;;;;;;;5002418;28;20054;-84
2021/07/06 06:12:09;;;;;;;2.88;1.10;;;;;;;;;;5000010;28;20056;-80
2021/07/06 06:14:37;;;;;;;4.45;1.17;;;;;;;;;;4996179;28;20057;-81
2021/07/06 06:17:04;;;;;;;4.45;1.20;;;;;;;;;;4996813;28;20057;-82
2021/07/06 06:19:31;;;;;;;3.90;1.30;;;;;;;;;;4996493;28;20046;-87
2021/07/06 06:21:57;;;;;;;2.65;1.20;;;;;;;;;;4983160;28;20050;-81
2021/07/06 06:24:24;;;;;;;4.95;1.20;;;;;;;;;;4989162;28;20042;-81
2021/07/06 06:26:51;;;;;;;2.03;1.00;;;;;;;;;;4981094;28;20042;-82
2021/07/06 06:29:17;;;;;;;1.58;0.80;;;;;;;;;;4994282;28;20050;-82
2021/07/06 06:31:46;;;;;;;2.05;1.02;;;;;;;;;;4987687;28;20047;-83
2021/07/06 06:34:12;;;;;;;4.22;0.88;;;;;;;;;;4980253;28;20049;-85
2021/07/06 06:36:39;;;;;;;3.20;1.20;;;;;;;;;;4988574;28;20487;-83
2021/07/06 06:39:06;;;;;;;5.78;1.45;;;;;;;;;;4984482;28;20110;-82
2021/07/06 06:41:33;;;;;;;3.50;1.30;;;;;;;;;;4993812;28;20039;-82
2021/07/06 06:44:00;;;;;;;4.90;1.42;;;;;;;;;;4989571;28;20046;-82
2021/07/06 06:46:27;;;;;;;5.35;1.13;;;;;;;;;;4983748;28;20047;-82
2021/07/06 06:48:54;;;;;;;4.25;1.38;;;;;;;;;;4980131;28;20416;-82
2021/07/06 06:51:21;;;;;;;5.55;1.25;;;;;;;;;;4980298;28;20043;-82
2021/07/06 06:53:47;;;;;;;5.40;1.20;;;;;;;;;;4980707;28;20494;-83
2021/07/06 06:56:14;;;;;;;4.80;1.30;;;;;;;;;;4981641;28;20518;-83
2021/07/06 06:58:40;;;;;;;4.55;1.70;;;;;;;;;;4983328;28;20493;-82
2021/07/06 07:01:07;;;;;;;4.28;1.63;;;;;;;;;;4985622;28;20053;-84
2021/07/06 07:03:33;;;;;;;4.88;1.20;;;;;;;;;;5001797;28;20057;-84
2021/07/06 07:06:01;;;;;;;3.13;0.93;;;;;;;;;;5005277;28;20053;-83
2021/07/06 07:08:28;;;;;;;3.80;1.13;;;;;;;;;;5005509;28;20056;-85
2021/07/06 07:10:54;;;;;;;2.55;0.85;;;;;;;;;;5004714;28;20062;-83
2021/07/06 07:13:21;;;;;;;3.95;1.17;;;;;;;;;;5005118;28;20057;-81
2021/07/06 07:15:47;;;;;;;2.17;1.20;;;;;;;;;;5006677;28;20081;-84
2021/07/06 07:18:14;;;;;;;3.47;0.85;;;;;;;;;;5007053;28;20479;-83
2021/07/06 07:20:40;;;;;;;2.30;0.90;;;;;;;;;;5003755;28;20090;-83
2021/07/06 07:23:08;;;;;;;3.50;1.00;;;;;;;;;;5004084;28;20058;-83
2021/07/06 07:25:35;;;;;;;2.60;1.02;;;;;;;;;;5003090;28;20046;-82
2021/07/06 07:28:01;;;;;;;1.80;0.85;;;;;;;;;;5003367;28;20050;-82
2021/07/06 07:30:27;;;;;;;1.17;0.80;;;;;;;;;;5003567;28;20056;-85
2021/07/06 07:32:54;;;;;;;2.28;0.80;;;;;;;;;;5005671;28;20050;-82
2021/07/06 07:35:21;;;;;;;4.35;1.08;;;;;;;;;;5007441;28;20070;-84
2021/07/06 07:37:48;;;;;;;1.55;0.73;;;;;;;;;;5007534;28;20043;-84
2021/07/06 07:40:18;;;;;;;1.98;0.60;;;;;;;;;;5005576;28;20046;-84
2021/07/06 07:42:44;;;;;;;3.40;0.70;;;;;;;;;;5006281;28;20047;-83
2021/07/06 07:45:12;;;;;;;2.17;1.00;;;;;;;;;;5008668;28;20125;-82
2021/07/06 07:47:39;;;;;;;1.58;0.95;;;;;;;;;;5009464;28;20077;-85
2021/07/06 07:50:07;;;;;;;2.25;0.90;;;;;;;;;;5007491;28;20058;-82
2021/07/06 07:52:34;;;;;;;1.50;1.20;;;;;;;;;;5008422;28;20055;-82
2021/07/06 07:55:01;;;;;;;2.33;0.80;;;;;;;;;;5009700;28;20105;-83
2021/07/06 07:57:29;;;;;;;1.65;0.75;;;;;;;;;;5009764;28;20054;-83
2021/07/06 07:59:56;;;;;;;2.45;0.68;;;;;;;;;;5010084;28;20047;-81
2021/07/06 08:02:23;;;;;;;1.15;0.60;;;;;;;;;;5008669;28;20439;-86
2021/07/06 08:04:50;;;;;;;0.70;0.40;;;;;;;;;;5004906;28;20046;-84
2021/07/06 08:07:17;;;;;;;2.53;1.05;;;;;;;;;;5008943;28;20111;-82
2021/07/06 08:09:44;;;;;;;2.53;1.63;;;;;;;;;;4990116;28;20043;-83
2021/07/06 08:12:10;;;;;;;4.00;2.53;;;;;;;;;;4989967;28;20049;-83
2021/07/06 08:14:38;;;;;;;2.33;1.77;;;;;;;;;;4990947;28;20051;-84
2021/07/06 08:17:05;;;;;;;2.83;1.23;;;;;;;;;;4989418;28;20580;-83
2021/07/06 08:19:31;;;;;;;3.67;0.95;;;;;;;;;;4988328;28;20050;-83
2021/07/06 08:21:59;;;;;;;1.13;0.52;;;;;;;;;;4987424;28;20555;-82
2021/07/06 08:24:26;;;;;;;3.50;0.80;;;;;;;;;;4985941;28;20385;-82
2021/07/06 08:26:52;;;;;;;1.00;0.70;;;;;;;;;;4986245;28;20051;-82
2021/07/06 08:29:19;;;;;;;1.23;0.80;;;;;;;;;;4986734;28;20053;-82
2021/07/06 08:31:46;;;;;;;1.50;0.70;;;;;;;;;;4987074;28;20050;-82
2021/07/06 08:34:13;;;;;;;1.42;0.70;;;;;;;;;;4987127;28;20065;-82
2021/07/06 08:36:40;;;;;;;0.98;0.70;;;;;;;;;;4987409;28;20059;-81
2021/07/06 08:39:07;;;;;;;2.10;0.70;;;;;;;;;;4986340;28;20061;-81
2021/07/06 08:41:34;;;;;;;1.23;0.65;;;;;;;;;;4986242;28;20046;-81
2021/07/06 08:44:01;;;;;;;1.83;0.70;;;;;;;;;;4986225;28;20043;-81
2021/07/06 08:46:28;;;;;;;1.20;0.60;;;;;;;;;;4985946;28;20054;-82
2021/07/06 08:48:57;;;;;;;0.80;0.60;;;;;;;;;;4986547;28;20043;-81
2021/07/06 08:51:24;;;;;;;2.58;0.90;;;;;;;;;;4986791;28;20050;-81
2021/07/06 08:53:52;;;;;;;1.42;0.50;;;;;;;;;;4986605;28;20046;-80
2021/07/06 08:56:19;;;;;;;1.10;0.80;;;;;;;;;;4987984;28;20051;-81
2021/07/06 08:58:45;;;;;;;1.58;0.70;;;;;;;;;;4986543;28;20058;-83
2021/07/06 09:01:12;;;;;;;0.77;0.57;;;;;;;;;;4986962;28;20053;-82
2021/07/06 09:03:51;;;;;;;1.17;0.80;;;;;;;;;;4987414;28;20043;-81
2021/07/06 09:06:19;;;;;;;1.75;0.75;;;;;;;;;;4987463;28;20077;-83
2021/07/06 09:08:51;;;;;;;2.15;0.65;;;;;;;;;;4986179;28;20058;-83
2021/07/06 09:11:18;;;;;;;0.82;0.63;;;;;;;;;;4987486;28;20086;-79
2021/07/06 09:13:45;;;;;;;1.33;0.70;;;;;;;;;;4983110;28;20054;-80
2021/07/06 09:16:21;;;;;;;1.42;0.73;;;;;;;;;;4982868;28;20046;-81
2021/07/06 09:18:48;;;;;;;2.10;0.70;;;;;;;;;;4984064;28;20053;-81
2021/07/06 09:21:15;;;;;;;0.90;0.50;;;;;;;;;;4984196;28;20053;-81
2021/07/06 09:23:43;;;;;;;1.65;0.90;;;;;;;;;;4985431;28;20134;-83
2021/07/06 09:26:16;;;;;;;1.75;0.60;;;;;;;;;;4986973;28;20043;-82
2021/07/06 09:28:43;;;;;;;0.73;0.60;;;;;;;;;;4983546;28;20047;-83
2021/07/06 09:31:28;;;;;;;0.80;0.55;;;;;;;;;;4983382;28;20051;-82
2021/07/06 09:33:58;;;;;;;11.18;2.08;;;;;;;;;;4983146;28;20061;-83
2021/07/06 09:36:46;;;;;;;1.15;0.52;;;;;;;;;;4983553;28;20051;-84
2021/07/06 09:39:16;;;;;;;0.90;0.75;;;;;;;;;;4975660;28;20050;-83
2021/07/06 09:41:52;;;;;;;1.23;0.70;;;;;;;;;;4983289;28;20138;-82
2021/07/06 09:44:30;;;;;;;1.38;0.50;;;;;;;;;;4983391;28;20050;-84
2021/07/06 09:46:59;;;;;;;1.77;0.70;;;;;;;;;;4983038;28;20055;-84
2021/07/06 09:49:28;;;;;;;1.50;0.68;;;;;;;;;;4983513;28;20055;-82
2021/07/06 09:51:55;;;;;;;0.90;0.85;;;;;;;;;;4983282;28;20094;-82
2021/07/06 09:54:34;;;;;;;1.25;0.60;;;;;;;;;;4983625;28;20142;-83
2021/07/06 09:57:23;;;;;;;1.27;0.70;;;;;;;;;;4983736;28;20051;-81
2021/07/06 09:59:58;;;;;;;1.40;0.82;;;;;;;;;;4982660;28;20049;-83
2021/07/06 10:02:26;;;;;;;1.33;0.85;;;;;;;;;;4982308;28;20042;-81
2021/07/06 10:04:54;;;;;;;2.10;0.70;;;;;;;;;;4981717;28;20051;-82
2021/07/06 10:07:21;;;;;;;0.75;0.60;;;;;;;;;;4981822;28;20053;-81
2021/07/06 10:09:50;;;;;;;1.65;1.10;;;;;;;;;;4982324;28;20054;-81
2021/07/06 10:12:17;;;;;;;0.82;0.60;;;;;;;;;;4983587;28;20047;-82
2021/07/06 10:14:44;;;;;;;1.73;0.65;;;;;;;;;;4982276;28;20058;-81
2021/07/06 10:17:11;;;;;;;1.13;0.70;;;;;;;;;;4981713;28;20054;-81
2021/07/06 10:19:38;;;;;;;0.73;0.57;;;;;;;;;;4982428;28;20050;-81
2021/07/06 10:22:07;;;;;;;1.75;0.70;;;;;;;;;;4983536;28;20047;-82
2021/07/06 10:24:37;;;;;;;1.08;0.57;;;;;;;;;;4986091;28;20130;-82
2021/07/06 10:27:07;;;;;;;1.77;0.80;;;;;;;;;;4987397;28;20172;-84
2021/07/06 10:29:34;;;;;;;1.02;0.40;;;;;;;;;;4987459;28;20049;-82
2021/07/06 10:32:01;;;;;;;1.83;0.90;;;;;;;;;;4987765;28;20047;-81
2021/07/06 10:34:29;;;;;;;1.92;0.60;;;;;;;;;;4987649;28;20050;-83
2021/07/06 10:36:58;;;;;;;2.40;0.80;;;;;;;;;;4986601;28;20110;-85
2021/07/06 10:39:53;;;;;;;2.33;0.73;;;;;;;;;;4986519;28;20047;-82
2021/07/06 10:42:38;;;;;;;1.30;0.70;;;;;;;;;;4931688;28;20050;-85
2021/07/06 10:45:15;;;;;;;1.33;0.50;;;;;;;;;;4988539;28;20180;-82
2021/07/06 10:47:48;;;;;;;2.67;0.60;;;;;;;;;;4985370;28;20047;-82
2021/07/06 10:50:51;;;;;;;2.97;0.77;;;;;;;;;;4983515;28;20051;-83
2021/07/06 10:53:23;;;;;;;2.97;0.52;;;;;;;;;;4983210;28;20059;-83
2021/07/06 10:56:02;;;;;;;1.67;0.63;;;;;;;;;;4983007;28;20085;-83
2021/07/06 10:58:52;;;;;;;1.33;0.73;;;;;;;;;;4982299;28;20043;-81
2021/07/06 11:01:57;;;;;;;2.15;0.60;;;;;;;;;;4983358;28;20054;-82
2021/07/06 11:05:09;;;;;;;1.27;0.60;;;;;;;;;;4982417;28;20047;-82
2021/07/06 11:07:55;;;;;;;1.20;0.80;;;;;;;;;;4981568;28;20055;-83
2021/07/06 11:10:31;;;;;;;0.82;0.70;;;;;;;;;;4982279;28;20046;-84
2021/07/06 11:13:12;;;;;;;1.38;0.40;;;;;;;;;;4981960;28;20051;-85
2021/07/06 11:15:40;;;;;;;1.65;0.50;;;;;;;;;;4983091;28;20047;-83
2021/07/06 11:18:10;;;;;;;1.40;0.80;;;;;;;;;;4982517;28;20053;-85
2021/07/06 11:20:42;;;;;;;1.08;0.65;;;;;;;;;;4986835;28;20183;-83
2021/07/06 11:23:11;;;;;;;0.88;0.75;;;;;;;;;;4987619;28;20074;-83
2021/07/06 11:25:42;;;;;;;1.75;0.90;;;;;;;;;;4986895;28;20062;-83
2021/07/06 11:28:12;;;;;;;2.15;0.60;;;;;;;;;;4985947;28;20054;-85
2021/07/06 11:30:45;;;;;;;0.50;0.50;;;;;;;;;;4985997;28;20097;-83
2021/07/06 11:33:13;;;;;;;1.02;0.60;;;;;;;;;;4985049;28;20047;-83
2021/07/06 11:35:42;;;;;;;2.05;0.70;;;;;;;;;;4985730;28;20058;-82
2021/07/06 11:38:10;;;;;;;1.58;0.60;;;;;;;;;;4984691;28;20046;-81
2021/07/06 11:40:37;;;;;;;2.88;0.93;;;;;;;;;;4984787;28;20047;-81
2021/07/06 11:43:04;;;;;;;2.00;0.70;;;;;;;;;;4986181;28;20053;-84
2021/07/06 11:45:30;;;;;;;1.20;0.70;;;;;;;;;;4986087;28;20055;-80
2021/07/06 11:48:07;;;;;;;2.35;0.90;;;;;;;;;;4985596;28;20074;-80
2021/07/06 11:50:34;;;;;;;1.55;0.70;;;;;;;;;;4985308;28;20050;-82
2021/07/06 11:53:01;;;;;;;0.82;0.60;;;;;;;;;;4986083;28;20125;-83
2021/07/06 11:55:28;;;;;;;1.42;0.70;;;;;;;;;;4984566;28;20103;-84
2021/07/06 11:57:55;;;;;;;1.55;0.90;;;;;;;;;;4985159;28;20047;-84
2021/07/06 12:00:23;;;;;;;2.40;0.60;;;;;;;;;;4986899;28;20051;-83
2021/07/06 12:02:50;;;;;;;0.82;0.50;;;;;;;;;;4998543;28;20039;-84
2021/07/06 12:05:20;;;;;;;3.33;0.80;;;;;;;;;;5000165;28;20045;-82
2021/07/06 12:07:46;;;;;;;1.33;0.70;;;;;;;;;;5001495;28;20042;-82
2021/07/06 12:10:13;;;;;;;0.80;0.60;;;;;;;;;;4996104;28;20049;-83
2021/07/06 12:12:39;;;;;;;2.17;1.02;;;;;;;;;;4996286;28;20058;-84
2021/07/06 12:15:07;;;;;;;2.15;0.60;;;;;;;;;;4992896;28;20407;-82
2021/07/06 12:17:34;;;;;;;1.13;0.68;;;;;;;;;;4993399;28;20038;-82
2021/07/06 12:20:03;;;;;;;1.23;0.50;;;;;;;;;;4996108;28;20055;-82
2021/07/06 12:22:31;;;;;;;3.38;0.80;;;;;;;;;;4987234;28;20497;-82
2021/07/06 12:24:59;;;;;;;0.40;0.40;;;;;;;;;;4998732;28;20057;-82
2021/07/06 12:27:26;;;;;;;0.88;0.60;;;;;;;;;;4996732;28;20120;-82
2021/07/06 12:30:02;;;;;;;1.17;0.50;;;;;;;;;;5005661;28;20042;-83
2021/07/06 12:32:29;;;;;;;0.80;0.40;;;;;;;;;;4991014;28;20196;-84
2021/07/06 12:34:57;;;;;;;0.73;0.50;;;;;;;;;;4997524;28;20050;-82
2021/07/06 12:37:25;;;;;;;1.75;0.60;;;;;;;;;;4996146;28;20107;-85
2021/07/06 12:40:02;;;;;;;0.75;0.55;;;;;;;;;;5002503;28;20051;-85
2021/07/06 12:42:31;;;;;;;2.10;0.60;;;;;;;;;;5000717;28;20118;-83
2021/07/06 12:44:59;;;;;;;0.73;0.60;;;;;;;;;;4989274;28;20115;-82
2021/07/06 12:47:27;;;;;;;0.43;0.40;;;;;;;;;;4985683;28;20053;-83
2021/07/06 12:49:56;;;;;;;1.10;0.60;;;;;;;;;;4990984;28;20046;-82
2021/07/06 12:52:24;;;;;;;1.75;0.57;;;;;;;;;;4985207;28;20078;-83
2021/07/06 12:54:50;;;;;;;0.95;0.60;;;;;;;;;;4985025;28;20057;-85
2021/07/06 12:57:28;;;;;;;0.60;0.50;;;;;;;;;;5004545;28;20069;-83
2021/07/06 13:00:11;;;;;;;1.00;0.60;;;;;;;;;;4991879;28;20046;-83
2021/07/06 13:02:39;;;;;;;0.63;0.50;;;;;;;;;;4998543;28;20046;-84
2021/07/06 13:05:20;;;;;;;2.22;0.60;;;;;;;;;;4990847;28;20039;-83
2021/07/06 13:07:47;;;;;;;1.80;0.70;;;;;;;;;;4986351;28;20054;-85
2021/07/06 13:10:15;;;;;;;0.63;0.47;;;;;;;;;;4983735;28;20043;-83
2021/07/06 13:12:44;;;;;;;1.13;0.63;;;;;;;;;;4996957;28;20129;-83
2021/07/06 13:15:12;;;;;;;1.88;0.85;;;;;;;;;;4991905;28;20054;-84
2021/07/06 13:17:44;;;;;;;2.33;1.08;;;;;;;;;;4988105;28;20504;-83
2021/07/06 13:20:13;;;;;;;2.50;1.13;;;;;;;;;;4988879;28;20046;-82
2021/07/06 13:22:41;;;;;;;2.50;1.27;;;;;;;;;;4995062;28;20062;-84
2021/07/06 13:25:10;;;;;;;1.98;1.30;;;;;;;;;;4994646;28;20105;-86
2021/07/06 13:27:37;;;;;;;3.40;1.27;;;;;;;;;;4996581;28;20129;-84
2021/07/06 13:30:07;;;;;;;1.58;0.90;;;;;;;;;;4998612;28;20054;-85
2021/07/06 13:32:38;;;;;;;1.23;0.90;;;;;;;;;;5001032;28;20046;-84
2021/07/06 13:35:06;;;;;;;1.52;1.05;;;;;;;;;;5001364;28;20050;-81
2021/07/06 13:37:32;;;;;;;1.40;1.00;;;;;;;;;;5001573;28;20047;-81
2021/07/06 13:39:59;;;;;;;2.35;1.52;;;;;;;;;;5002161;28;20054;-82
2021/07/06 13:42:25;;;;;;;1.33;1.00;;;;;;;;;;5000903;28;20054;-84
2021/07/06 13:44:52;;;;;;;2.83;1.10;;;;;;;;;;5001573;28;20054;-84
2021/07/06 13:47:20;;;;;;;2.63;1.35;;;;;;;;;;5002550;28;20054;-83
2021/07/06 13:49:47;;;;;;;3.08;1.58;;;;;;;;;;5002983;28;20061;-81
2021/07/06 13:52:13;;;;;;;4.50;1.23;;;;;;;;;;5002903;28;20134;-84
2021/07/06 13:54:40;;;;;;;3.53;1.33;;;;;;;;;;5003480;28;20069;-82
2021/07/06 13:57:09;;;;;;;2.33;1.30;;;;;;;;;;5003305;28;20522;-82
2021/07/06 13:59:35;;;;;;;4.20;1.17;;;;;;;;;;5003203;28;20046;-83
2021/07/06 14:02:02;;;;;;;2.05;1.13;;;;;;;;;;5002552;28;20058;-84
2021/07/06 14:04:30;;;;;;;1.58;1.10;;;;;;;;;;5003309;28;20468;-84
2021/07/06 14:06:57;;;;;;;1.70;1.23;;;;;;;;;;5003607;28;20044;-85
2021/07/06 14:09:24;;;;;;;3.20;1.20;;;;;;;;;;5003323;28;20129;-82
2021/07/06 14:11:50;;;;;;;1.67;1.10;;;;;;;;;;5003376;28;20062;-83
2021/07/06 14:14:17;;;;;;;2.20;1.20;;;;;;;;;;5003877;28;20050;-82
2021/07/06 14:16:43;;;;;;;1.98;1.25;;;;;;;;;;5003575;28;20042;-84
2021/07/06 14:19:10;;;;;;;2.08;1.40;;;;;;;;;;5004646;28;20046;-84
2021/07/06 14:21:38;;;;;;;2.17;1.30;;;;;;;;;;5005432;28;20061;-84
2021/07/06 14:24:05;;;;;;;2.13;1.30;;;;;;;;;;5006751;28;20074;-82
2021/07/06 14:26:32;;;;;;;2.20;1.40;;;;;;;;;;5006566;28;20047;-82
2021/07/06 14:28:59;;;;;;;2.03;1.00;;;;;;;;;;4998950;28;20062;-82
2021/07/06 14:31:26;;;;;;;1.60;1.17;;;;;;;;;;4998736;28;20097;-83
2021/07/06 14:33:52;;;;;;;3.70;1.30;;;;;;;;;;4999020;28;20050;-84
2021/07/06 14:36:19;;;;;;;2.70;1.20;;;;;;;;;;4998075;28;20057;-82
2021/07/06 14:38:47;;;;;;;2.75;1.15;;;;;;;;;;4999133;28;20051;-82
2021/07/06 14:41:14;;;;;;;4.85;1.30;;;;;;;;;;4997945;28;20051;-82
2021/07/06 14:43:41;;;;;;;3.17;1.45;;;;;;;;;;4997448;28;20053;-81
2021/07/06 14:46:07;;;;;;;3.53;1.10;;;;;;;;;;4997161;28;20042;-83
2021/07/06 14:48:34;;;;;;;2.47;1.10;;;;;;;;;;4995809;28;20136;-83
2021/07/06 14:51:00;;;;;;;1.80;1.05;;;;;;;;;;4996311;28;20073;-84